sensor_id;sensor_type;location;lat;lon;timestamp;temperature;humidity
24382;DHT22;12502;50.678;7.172;2023-05-23T00:03:54;16.60;99.90
24382;DHT22;12502;50.678;7.172;2023-05-23T00:08:56;16.40;99.90
24382;DHT22;12502;50.678;7.172;2023-05-23T00:13:58;16.40;99.90
24382;DHT22;12502;50.678;7.172;2023-05-23T00:19:03;16.30;99.90
24382;DHT22;12502;50.678;7.172;2023-05-23T00:24:08;16.30;99.90
24382;DHT22;12502;50.678;7.172;2023-05-23T00:29:10;16.20;99.90
24382;DHT22;12502;50.678;7.172;2023-05-23T00:34:18;16.10;99.90
24382;DHT22;12502;50.678;7.172;2023-05-23T00:39:20;16.10;99.90
24382;DHT22;12502;50.678;7.172;2023-05-23T00:44:22;16.00;99.90
24382;DHT22;12502;50.678;7.172;2023-05-23T00:49:25;15.90;99.90
24382;DHT22;12502;50.678;7.172;2023-05-23T00:54:29;15.80;99.90
24382;DHT22;12502;50.678;7.172;2023-05-23T00:59:31;15.70;99.90
24382;DHT22;12502;50.678;7.172;2023-05-23T01:04:34;15.70;99.90
24382;DHT22;12502;50.678;7.172;2023-05-23T01:09:40;15.60;99.90
24382;DHT22;12502;50.678;7.172;2023-05-23T01:20:06;15.40;99.90
24382;DHT22;12502;50.678;7.172;2023-05-23T01:30:12;15.30;99.90
24382;DHT22;12502;50.678;7.172;2023-05-23T01:41:26;15.20;99.90
24382;DHT22;12502;50.678;7.172;2023-05-23T01:46:29;15.30;99.90
24382;DHT22;12502;50.678;7.172;2023-05-23T01:51:32;15.30;99.90
24382;DHT22;12502;50.678;7.172;2023-05-23T01:56:35;15.30;99.90
24382;DHT22;12502;50.678;7.172;2023-05-23T02:01:37;15.30;99.90
24382;DHT22;12502;50.678;7.172;2023-05-23T02:06:41;15.40;99.90
24382;DHT22;12502;50.678;7.172;2023-05-23T02:11:42;15.40;99.90
24382;DHT22;12502;50.678;7.172;2023-05-23T02:16:44;15.40;99.90
24382;DHT22;12502;50.678;7.172;2023-05-23T02:21:46;15.40;99.90
24382;DHT22;12502;50.678;7.172;2023-05-23T02:26:49;15.40;99.90
24382;DHT22;12502;50.678;7.172;2023-05-23T02:31:51;15.50;99.90
24382;DHT22;12502;50.678;7.172;2023-05-23T02:36:53;15.50;99.90
24382;DHT22;12502;50.678;7.172;2023-05-23T02:41:55;15.50;99.90
24382;DHT22;12502;50.678;7.172;2023-05-23T02:46:57;15.50;99.90
24382;DHT22;12502;50.678;7.172;2023-05-23T02:51:59;15.50;99.90
24382;DHT22;12502;50.678;7.172;2023-05-23T02:57:01;15.50;99.90
24382;DHT22;12502;50.678;7.172;2023-05-23T03:02:02;15.50;99.90
24382;DHT22;12502;50.678;7.172;2023-05-23T03:07:04;15.40;99.90
24382;DHT22;12502;50.678;7.172;2023-05-23T03:12:17;15.40;99.90
24382;DHT22;12502;50.678;7.172;2023-05-23T03:17:19;15.30;99.90
24382;DHT22;12502;50.678;7.172;2023-05-23T03:22:20;15.40;99.90
24382;DHT22;12502;50.678;7.172;2023-05-23T03:27:22;15.30;99.90
24382;DHT22;12502;50.678;7.172;2023-05-23T03:32:24;15.30;99.90
24382;DHT22;12502;50.678;7.172;2023-05-23T03:37:25;15.30;99.90
24382;DHT22;12502;50.678;7.172;2023-05-23T03:42:27;15.30;99.90
24382;DHT22;12502;50.678;7.172;2023-05-23T03:47:29;15.30;99.90
24382;DHT22;12502;50.678;7.172;2023-05-23T03:52:31;15.30;99.90
24382;DHT22;12502;50.678;7.172;2023-05-23T03:57:32;15.30;99.90
24382;DHT22;12502;50.678;7.172;2023-05-23T04:02:34;15.30;99.90
24382;DHT22;12502;50.678;7.172;2023-05-23T04:07:36;15.30;99.90
24382;DHT22;12502;50.678;7.172;2023-05-23T04:12:38;15.30;99.90
24382;DHT22;12502;50.678;7.172;2023-05-23T04:17:42;15.30;99.90
24382;DHT22;12502;50.678;7.172;2023-05-23T04:22:44;15.10;99.90
24382;DHT22;12502;50.678;7.172;2023-05-23T04:27:46;15.20;99.90
24382;DHT22;12502;50.678;7.172;2023-05-23T04:32:47;15.10;99.90
24382;DHT22;12502;50.678;7.172;2023-05-23T04:37:49;14.70;99.90
24382;DHT22;12502;50.678;7.172;2023-05-23T04:42:56;14.60;99.90
24382;DHT22;12502;50.678;7.172;2023-05-23T04:47:58;14.60;99.90
24382;DHT22;12502;50.678;7.172;2023-05-23T04:53:00;14.60;99.90
24382;DHT22;12502;50.678;7.172;2023-05-23T04:58:02;14.60;99.90
24382;DHT22;12502;50.678;7.172;2023-05-23T05:03:04;14.50;99.90
24382;DHT22;12502;50.678;7.172;2023-05-23T05:08:05;14.50;99.90
24382;DHT22;12502;50.678;7.172;2023-05-23T05:13:08;14.40;99.90
24382;DHT22;12502;50.678;7.172;2023-05-23T05:18:19;14.40;99.90
24382;DHT22;12502;50.678;7.172;2023-05-23T05:23:23;14.40;99.90
24382;DHT22;12502;50.678;7.172;2023-05-23T05:28:25;14.40;99.90
24382;DHT22;12502;50.678;7.172;2023-05-23T05:33:27;14.40;99.90
24382;DHT22;12502;50.678;7.172;2023-05-23T05:38:29;14.40;99.90
24382;DHT22;12502;50.678;7.172;2023-05-23T05:43:31;14.40;99.90
24382;DHT22;12502;50.678;7.172;2023-05-23T05:48:32;14.50;99.90
24382;DHT22;12502;50.678;7.172;2023-05-23T05:53:34;14.50;99.90
24382;DHT22;12502;50.678;7.172;2023-05-23T05:58:36;14.40;99.90
24382;DHT22;12502;50.678;7.172;2023-05-23T06:03:40;14.40;99.90
24382;DHT22;12502;50.678;7.172;2023-05-23T06:08:43;14.20;99.90
24382;DHT22;12502;50.678;7.172;2023-05-23T06:13:44;14.30;99.90
24382;DHT22;12502;50.678;7.172;2023-05-23T06:18:46;14.30;99.90
24382;DHT22;12502;50.678;7.172;2023-05-23T06:23:48;14.40;99.90
24382;DHT22;12502;50.678;7.172;2023-05-23T06:28:50;14.50;99.90
24382;DHT22;12502;50.678;7.172;2023-05-23T06:33:52;14.60;99.90
24382;DHT22;12502;50.678;7.172;2023-05-23T06:38:54;14.60;99.90
24382;DHT22;12502;50.678;7.172;2023-05-23T06:43:56;14.60;99.90
24382;DHT22;12502;50.678;7.172;2023-05-23T06:48:58;14.60;99.90
24382;DHT22;12502;50.678;7.172;2023-05-23T06:54:15;14.50;99.90
24382;DHT22;12502;50.678;7.172;2023-05-23T06:59:16;14.60;99.90
24382;DHT22;12502;50.678;7.172;2023-05-23T07:04:18;14.60;99.90
24382;DHT22;12502;50.678;7.172;2023-05-23T07:09:20;14.60;99.90
24382;DHT22;12502;50.678;7.172;2023-05-23T07:14:22;14.60;99.90
24382;DHT22;12502;50.678;7.172;2023-05-23T07:19:23;14.50;99.90
24382;DHT22;12502;50.678;7.172;2023-05-23T07:24:25;14.50;99.90
24382;DHT22;12502;50.678;7.172;2023-05-23T07:29:27;14.60;99.90
24382;DHT22;12502;50.678;7.172;2023-05-23T07:34:29;14.60;99.90
24382;DHT22;12502;50.678;7.172;2023-05-23T07:39:32;14.60;99.90
24382;DHT22;12502;50.678;7.172;2023-05-23T07:44:34;14.60;99.90
24382;DHT22;12502;50.678;7.172;2023-05-23T07:49:35;14.50;99.90
24382;DHT22;12502;50.678;7.172;2023-05-23T07:54:37;14.50;99.90
24382;DHT22;12502;50.678;7.172;2023-05-23T07:59:39;14.60;99.90
24382;DHT22;12502;50.678;7.172;2023-05-23T08:04:41;14.70;99.90
24382;DHT22;12502;50.678;7.172;2023-05-23T08:09:42;14.70;99.90
24382;DHT22;12502;50.678;7.172;2023-05-23T08:14:44;14.80;99.90
24382;DHT22;12502;50.678;7.172;2023-05-23T08:19:52;14.90;99.90
24382;DHT22;12502;50.678;7.172;2023-05-23T08:24:54;15.00;99.90
24382;DHT22;12502;50.678;7.172;2023-05-23T08:29:56;15.10;99.90
24382;DHT22;12502;50.678;7.172;2023-05-23T08:34:58;15.10;99.90
24382;DHT22;12502;50.678;7.172;2023-05-23T08:40:00;15.20;99.90
24382;DHT22;12502;50.678;7.172;2023-05-23T08:45:02;15.20;99.90
24382;DHT22;12502;50.678;7.172;2023-05-23T08:50:05;15.20;99.90
24382;DHT22;12502;50.678;7.172;2023-05-23T08:55:07;15.20;99.90
24382;DHT22;12502;50.678;7.172;2023-05-23T09:05:21;15.20;99.90
24382;DHT22;12502;50.678;7.172;2023-05-23T09:10:26;15.20;99.90
24382;DHT22;12502;50.678;7.172;2023-05-23T09:15:35;15.20;99.90
24382;DHT22;12502;50.678;7.172;2023-05-23T09:20:39;15.10;99.90
24382;DHT22;12502;50.678;7.172;2023-05-23T09:31:03;15.20;99.90
24382;DHT22;12502;50.678;7.172;2023-05-23T09:36:06;15.10;99.90
24382;DHT22;12502;50.678;7.172;2023-05-23T09:46:39;15.00;99.90
24382;DHT22;12502;50.678;7.172;2023-05-23T09:51:42;14.80;99.90
24382;DHT22;12502;50.678;7.172;2023-05-23T09:56:44;14.60;99.90
24382;DHT22;12502;50.678;7.172;2023-05-23T10:13:05;14.80;99.90
24382;DHT22;12502;50.678;7.172;2023-05-23T10:18:19;14.90;99.90
24382;DHT22;12502;50.678;7.172;2023-05-23T10:23:21;14.70;99.90
24382;DHT22;12502;50.678;7.172;2023-05-23T10:28:24;14.70;99.90
24382;DHT22;12502;50.678;7.172;2023-05-23T10:33:28;14.60;99.90
24382;DHT22;12502;50.678;7.172;2023-05-23T10:38:41;14.80;99.90
24382;DHT22;12502;50.678;7.172;2023-05-23T10:49:10;14.50;99.90
24382;DHT22;12502;50.678;7.172;2023-05-23T10:54:15;14.60;99.90
24382;DHT22;12502;50.678;7.172;2023-05-23T10:59:19;14.30;99.90
24382;DHT22;12502;50.678;7.172;2023-05-23T11:04:26;14.30;99.90
24382;DHT22;12502;50.678;7.172;2023-05-23T11:09:28;14.30;99.90
24382;DHT22;12502;50.678;7.172;2023-05-23T11:19:32;14.80;99.90
24382;DHT22;12502;50.678;7.172;2023-05-23T11:24:53;15.00;99.90
24382;DHT22;12502;50.678;7.172;2023-05-23T11:29:56;14.90;99.90
24382;DHT22;12502;50.678;7.172;2023-05-23T11:35:07;14.80;99.90
24382;DHT22;12502;50.678;7.172;2023-05-23T11:40:29;15.30;99.90
24382;DHT22;12502;50.678;7.172;2023-05-23T11:45:32;15.70;99.90
24382;DHT22;12502;50.678;7.172;2023-05-23T11:50:42;15.50;99.90
24382;DHT22;12502;50.678;7.172;2023-05-23T11:55:51;15.50;99.90
24382;DHT22;12502;50.678;7.172;2023-05-23T12:01:04;15.50;99.90
24382;DHT22;12502;50.678;7.172;2023-05-23T12:06:07;15.30;99.90
24382;DHT22;12502;50.678;7.172;2023-05-23T12:11:08;15.20;99.90
24382;DHT22;12502;50.678;7.172;2023-05-23T12:16:12;15.20;99.90
24382;DHT22;12502;50.678;7.172;2023-05-23T12:21:14;15.40;99.90
24382;DHT22;12502;50.678;7.172;2023-05-23T12:26:16;15.50;99.90
24382;DHT22;12502;50.678;7.172;2023-05-23T12:31:19;15.40;99.90
24382;DHT22;12502;50.678;7.172;2023-05-23T12:36:22;15.50;99.90
24382;DHT22;12502;50.678;7.172;2023-05-23T12:41:25;15.20;99.90
24382;DHT22;12502;50.678;7.172;2023-05-23T12:46:27;15.30;99.90
24382;DHT22;12502;50.678;7.172;2023-05-23T12:51:29;15.40;99.90
24382;DHT22;12502;50.678;7.172;2023-05-23T12:56:31;15.60;99.90
24382;DHT22;12502;50.678;7.172;2023-05-23T13:01:34;16.10;99.90
24382;DHT22;12502;50.678;7.172;2023-05-23T13:12:39;16.00;99.90
24382;DHT22;12502;50.678;7.172;2023-05-23T13:17:41;16.10;99.90
24382;DHT22;12502;50.678;7.172;2023-05-23T13:22:48;15.80;99.90
24382;DHT22;12502;50.678;7.172;2023-05-23T13:27:51;15.50;99.90
24382;DHT22;12502;50.678;7.172;2023-05-23T13:32:56;15.50;99.90
24382;DHT22;12502;50.678;7.172;2023-05-23T13:37:58;15.60;99.90
24382;DHT22;12502;50.678;7.172;2023-05-23T13:42:59;15.40;99.90
24382;DHT22;12502;50.678;7.172;2023-05-23T13:48:01;15.40;99.90
24382;DHT22;12502;50.678;7.172;2023-05-23T13:53:03;15.40;99.90
24382;DHT22;12502;50.678;7.172;2023-05-23T13:58:08;15.90;99.90
24382;DHT22;12502;50.678;7.172;2023-05-23T14:03:10;16.00;99.90
24382;DHT22;12502;50.678;7.172;2023-05-23T14:08:12;16.10;99.90
24382;DHT22;12502;50.678;7.172;2023-05-23T14:13:14;16.30;99.90
24382;DHT22;12502;50.678;7.172;2023-05-23T14:18:16;16.30;99.90
24382;DHT22;12502;50.678;7.172;2023-05-23T14:23:19;16.00;99.90
24382;DHT22;12502;50.678;7.172;2023-05-23T14:28:21;16.20;99.90
24382;DHT22;12502;50.678;7.172;2023-05-23T14:33:22;16.00;99.90
24382;DHT22;12502;50.678;7.172;2023-05-23T14:38:24;15.90;99.90
24382;DHT22;12502;50.678;7.172;2023-05-23T14:43:26;16.30;99.90
24382;DHT22;12502;50.678;7.172;2023-05-23T14:48:28;16.90;99.90
24382;DHT22;12502;50.678;7.172;2023-05-23T14:53:29;16.60;99.90
24382;DHT22;12502;50.678;7.172;2023-05-23T14:58:31;16.50;99.90
24382;DHT22;12502;50.678;7.172;2023-05-23T15:03:33;16.80;99.90
24382;DHT22;12502;50.678;7.172;2023-05-23T15:08:34;16.50;99.90
24382;DHT22;12502;50.678;7.172;2023-05-23T15:13:36;16.20;99.90
24382;DHT22;12502;50.678;7.172;2023-05-23T15:18:38;16.10;99.90
24382;DHT22;12502;50.678;7.172;2023-05-23T15:23:42;16.30;99.90
24382;DHT22;12502;50.678;7.172;2023-05-23T15:28:44;16.70;99.90
24382;DHT22;12502;50.678;7.172;2023-05-23T15:33:48;16.40;99.90
24382;DHT22;12502;50.678;7.172;2023-05-23T15:38:50;16.40;99.90
24382;DHT22;12502;50.678;7.172;2023-05-23T15:43:54;16.70;99.90
24382;DHT22;12502;50.678;7.172;2023-05-23T15:49:04;16.50;99.90
24382;DHT22;12502;50.678;7.172;2023-05-23T15:54:32;16.40;99.90
24382;DHT22;12502;50.678;7.172;2023-05-23T15:59:35;16.70;99.90
24382;DHT22;12502;50.678;7.172;2023-05-23T16:04:44;16.70;99.90
24382;DHT22;12502;50.678;7.172;2023-05-23T16:09:46;16.60;99.90
24382;DHT22;12502;50.678;7.172;2023-05-23T16:14:49;16.40;99.90
24382;DHT22;12502;50.678;7.172;2023-05-23T16:19:53;16.30;99.90
24382;DHT22;12502;50.678;7.172;2023-05-23T16:24:55;16.20;99.90
24382;DHT22;12502;50.678;7.172;2023-05-23T16:29:58;16.30;99.90
24382;DHT22;12502;50.678;7.172;2023-05-23T16:35:05;16.20;99.90
24382;DHT22;12502;50.678;7.172;2023-05-23T16:40:07;16.20;99.90
24382;DHT22;12502;50.678;7.172;2023-05-23T16:45:09;16.20;99.90
24382;DHT22;12502;50.678;7.172;2023-05-23T16:50:11;16.20;99.90
24382;DHT22;12502;50.678;7.172;2023-05-23T17:00:17;16.00;99.90
24382;DHT22;12502;50.678;7.172;2023-05-23T17:05:22;15.90;99.90
24382;DHT22;12502;50.678;7.172;2023-05-23T17:10:25;15.80;99.90
24382;DHT22;12502;50.678;7.172;2023-05-23T17:15:26;15.80;99.90
24382;DHT22;12502;50.678;7.172;2023-05-23T17:20:28;15.80;99.90
24382;DHT22;12502;50.678;7.172;2023-05-23T17:25:34;15.70;99.90
24382;DHT22;12502;50.678;7.172;2023-05-23T17:30:36;15.70;99.90
24382;DHT22;12502;50.678;7.172;2023-05-23T17:40:43;15.70;99.90
24382;DHT22;12502;50.678;7.172;2023-05-23T17:45:46;15.70;99.90
24382;DHT22;12502;50.678;7.172;2023-05-23T17:50:48;15.50;99.90
24382;DHT22;12502;50.678;7.172;2023-05-23T17:55:49;15.50;99.90
24382;DHT22;12502;50.678;7.172;2023-05-23T18:05:58;15.50;99.90
24382;DHT22;12502;50.678;7.172;2023-05-23T18:11:02;15.50;99.90
24382;DHT22;12502;50.678;7.172;2023-05-23T18:16:07;15.40;99.90
24382;DHT22;12502;50.678;7.172;2023-05-23T18:21:10;15.30;99.90
24382;DHT22;12502;50.678;7.172;2023-05-23T18:26:14;15.30;99.90
24382;DHT22;12502;50.678;7.172;2023-05-23T18:31:16;15.20;99.90
24382;DHT22;12502;50.678;7.172;2023-05-23T18:36:19;15.20;99.90
24382;DHT22;12502;50.678;7.172;2023-05-23T18:41:22;15.00;99.90
24382;DHT22;12502;50.678;7.172;2023-05-23T18:46:24;14.90;99.90
24382;DHT22;12502;50.678;7.172;2023-05-23T18:51:27;14.70;99.90
24382;DHT22;12502;50.678;7.172;2023-05-23T18:56:30;14.70;99.90
24382;DHT22;12502;50.678;7.172;2023-05-23T19:01:32;14.60;99.90
24382;DHT22;12502;50.678;7.172;2023-05-23T19:06:36;14.50;99.90
24382;DHT22;12502;50.678;7.172;2023-05-23T19:11:39;14.40;99.90
24382;DHT22;12502;50.678;7.172;2023-05-23T19:16:41;14.30;99.90
24382;DHT22;12502;50.678;7.172;2023-05-23T19:21:48;14.20;99.90
24382;DHT22;12502;50.678;7.172;2023-05-23T19:26:51;14.10;99.90
24382;DHT22;12502;50.678;7.172;2023-05-23T19:31:53;14.00;99.90
24382;DHT22;12502;50.678;7.172;2023-05-23T19:36:56;14.00;99.90
24382;DHT22;12502;50.678;7.172;2023-05-23T19:41:58;13.90;99.90
24382;DHT22;12502;50.678;7.172;2023-05-23T19:47:01;13.80;99.90
24382;DHT22;12502;50.678;7.172;2023-05-23T19:52:02;13.70;99.90
24382;DHT22;12502;50.678;7.172;2023-05-23T19:57:04;13.90;99.90
24382;DHT22;12502;50.678;7.172;2023-05-23T20:02:08;13.70;99.90
24382;DHT22;12502;50.678;7.172;2023-05-23T20:07:11;13.70;99.90
24382;DHT22;12502;50.678;7.172;2023-05-23T20:12:13;13.70;99.90
24382;DHT22;12502;50.678;7.172;2023-05-23T20:17:14;13.60;99.90
24382;DHT22;12502;50.678;7.172;2023-05-23T20:22:16;13.60;99.90
24382;DHT22;12502;50.678;7.172;2023-05-23T20:27:19;13.50;99.90
24382;DHT22;12502;50.678;7.172;2023-05-23T20:32:21;13.50;99.90
24382;DHT22;12502;50.678;7.172;2023-05-23T20:37:23;13.40;99.90
24382;DHT22;12502;50.678;7.172;2023-05-23T20:42:25;13.40;99.90
24382;DHT22;12502;50.678;7.172;2023-05-23T20:47:33;13.30;99.90
24382;DHT22;12502;50.678;7.172;2023-05-23T20:52:46;13.20;99.90
24382;DHT22;12502;50.678;7.172;2023-05-23T20:57:48;13.10;99.90
24382;DHT22;12502;50.678;7.172;2023-05-23T21:02:50;13.10;99.90
24382;DHT22;12502;50.678;7.172;2023-05-23T21:07:52;13.00;99.90
24382;DHT22;12502;50.678;7.172;2023-05-23T21:12:57;12.90;99.90
24382;DHT22;12502;50.678;7.172;2023-05-23T21:18:00;12.80;99.90
24382;DHT22;12502;50.678;7.172;2023-05-23T21:23:02;12.80;99.90
24382;DHT22;12502;50.678;7.172;2023-05-23T21:28:04;12.70;99.90
24382;DHT22;12502;50.678;7.172;2023-05-23T21:33:06;12.60;99.90
24382;DHT22;12502;50.678;7.172;2023-05-23T21:38:11;12.50;99.90
24382;DHT22;12502;50.678;7.172;2023-05-23T21:43:14;12.40;99.90
24382;DHT22;12502;50.678;7.172;2023-05-23T21:48:25;12.30;99.90
24382;DHT22;12502;50.678;7.172;2023-05-23T21:53:27;12.30;99.90
24382;DHT22;12502;50.678;7.172;2023-05-23T21:58:31;12.20;99.90
24382;DHT22;12502;50.678;7.172;2023-05-23T22:03:33;12.20;99.90
24382;DHT22;12502;50.678;7.172;2023-05-23T22:08:35;12.00;99.90
24382;DHT22;12502;50.678;7.172;2023-05-23T22:13:37;11.90;99.90
24382;DHT22;12502;50.678;7.172;2023-05-23T22:18:41;11.80;99.90
24382;DHT22;12502;50.678;7.172;2023-05-23T22:23:52;11.70;99.90
24382;DHT22;12502;50.678;7.172;2023-05-23T22:28:54;11.70;99.90
24382;DHT22;12502;50.678;7.172;2023-05-23T22:33:56;11.60;99.90
24382;DHT22;12502;50.678;7.172;2023-05-23T22:38:58;11.50;99.90
24382;DHT22;12502;50.678;7.172;2023-05-23T22:44:02;11.40;99.90
24382;DHT22;12502;50.678;7.172;2023-05-23T22:49:04;11.30;99.90
24382;DHT22;12502;50.678;7.172;2023-05-23T22:54:06;11.30;99.90
24382;DHT22;12502;50.678;7.172;2023-05-23T22:59:07;11.30;99.90
24382;DHT22;12502;50.678;7.172;2023-05-23T23:04:09;11.10;99.90
24382;DHT22;12502;50.678;7.172;2023-05-23T23:09:11;11.10;99.90
24382;DHT22;12502;50.678;7.172;2023-05-23T23:14:13;11.00;99.90
24382;DHT22;12502;50.678;7.172;2023-05-23T23:19:15;11.00;99.90
24382;DHT22;12502;50.678;7.172;2023-05-23T23:24:18;10.90;99.90
24382;DHT22;12502;50.678;7.172;2023-05-23T23:29:19;10.80;99.90
24382;DHT22;12502;50.678;7.172;2023-05-23T23:34:21;10.70;99.90
24382;DHT22;12502;50.678;7.172;2023-05-23T23:39:23;10.60;99.90
24382;DHT22;12502;50.678;7.172;2023-05-23T23:44:25;10.50;99.90
24382;DHT22;12502;50.678;7.172;2023-05-23T23:49:26;10.50;99.90
24382;DHT22;12502;50.678;7.172;2023-05-23T23:54:28;10.50;99.90
24382;DHT22;12502;50.678;7.172;2023-05-23T23:59:30;10.30;99.90
